createdAt,value
2023-02-21T00:28:36.361Z,509.00
2023-02-21T00:29:35.781Z,508.00
2023-02-21T00:30:35.937Z,509.00
2023-02-21T00:31:35.959Z,505.00
2023-02-21T00:32:35.966Z,505.00
2023-02-21T00:33:36.733Z,504.00
2023-02-21T00:34:35.726Z,502.00
2023-02-21T00:35:35.758Z,504.00
2023-02-21T00:36:35.922Z,504.00
2023-02-21T00:37:35.898Z,504.00
2023-02-21T00:38:35.792Z,503.00
2023-02-21T00:39:35.827Z,505.00
2023-02-21T00:40:35.762Z,504.00
2023-02-21T00:41:35.823Z,502.00
2023-02-21T00:42:35.846Z,501.00
2023-02-21T00:43:36.780Z,499.00
2023-02-21T00:44:35.976Z,500.00
2023-02-21T00:45:35.982Z,499.00
2023-02-21T00:46:36.357Z,501.00
2023-02-21T00:47:36.053Z,501.00
2023-02-21T00:48:36.152Z,503.00
2023-02-21T00:49:36.177Z,505.00
2023-02-21T00:50:36.181Z,507.00
2023-02-21T00:51:36.272Z,506.00
2023-02-21T00:52:36.295Z,507.00
2023-02-21T00:53:36.378Z,508.00
2023-02-21T00:54:36.418Z,509.00
2023-02-21T00:55:36.526Z,511.00
2023-02-21T00:56:36.586Z,510.00
2023-02-21T00:57:36.632Z,513.00
2023-02-21T00:58:36.741Z,512.00
2023-02-21T00:59:36.793Z,511.00
2023-02-21T01:00:36.918Z,512.00
2023-02-21T01:01:36.998Z,511.00
2023-02-21T01:02:36.988Z,512.00
2023-02-21T01:03:37.076Z,513.00
2023-02-21T01:04:37.144Z,514.00
2023-02-21T01:05:37.250Z,512.00
2023-02-21T01:06:37.312Z,513.00
2023-02-21T01:07:37.309Z,513.00
2023-02-21T01:08:37.392Z,513.00
2023-02-21T01:09:37.466Z,512.00
2023-02-21T01:10:37.505Z,513.00
2023-02-21T01:11:37.621Z,513.00
2023-02-21T01:12:37.706Z,512.00
2023-02-21T01:13:37.764Z,513.00
2023-02-21T01:14:37.877Z,514.00
2023-02-21T01:15:38.029Z,517.00
2023-02-21T01:16:37.953Z,516.00
2023-02-21T01:17:38.036Z,516.00
2023-02-21T01:18:38.105Z,517.00
2023-02-21T01:19:38.170Z,516.00
2023-02-21T01:20:38.295Z,516.00
2023-02-21T01:21:38.247Z,517.00
2023-02-21T01:22:38.337Z,518.00
2023-02-21T01:23:38.356Z,516.00
2023-02-21T01:24:38.301Z,513.00
2023-02-21T01:25:38.374Z,511.00
2023-02-21T01:26:38.540Z,511.00
2023-02-21T01:27:38.526Z,508.00
2023-02-21T01:28:38.490Z,509.00
2023-02-21T01:29:38.431Z,511.00
2023-02-21T01:30:38.562Z,508.00
2023-02-21T01:32:58.472Z,503.00
2023-02-21T01:55:37.712Z,508.00
2023-02-21T01:56:37.922Z,514.00
2023-02-21T01:57:37.636Z,514.00
2023-02-21T01:58:37.603Z,512.00
2023-02-21T01:59:37.608Z,512.00
2023-02-21T02:00:37.600Z,511.00
2023-02-21T02:01:37.617Z,510.00
2023-02-21T02:02:37.700Z,509.00
2023-02-21T02:03:37.590Z,507.00
2023-02-21T02:04:37.607Z,507.00
2023-02-21T02:05:37.662Z,507.00
2023-02-21T02:06:37.570Z,508.00
2023-02-21T02:07:37.629Z,507.00
2023-02-21T02:08:37.525Z,509.00
2023-02-21T02:09:37.553Z,511.00
2023-02-21T02:10:37.555Z,509.00
2023-02-21T02:11:37.490Z,510.00
2023-02-21T02:12:37.493Z,510.00
2023-02-21T02:14:57.568Z,514.00
2023-02-21T02:15:57.486Z,511.00
2023-02-21T02:16:57.477Z,508.00
2023-02-21T02:17:57.382Z,506.00
2023-02-21T02:18:57.309Z,505.00
2023-02-21T02:19:57.270Z,509.00
2023-02-21T02:20:57.238Z,509.00
2023-02-21T02:21:57.318Z,510.00
2023-02-21T02:22:57.251Z,512.00
2023-02-21T02:23:57.242Z,513.00
2023-02-21T02:24:57.224Z,511.00
2023-02-21T02:25:57.227Z,510.00
2023-02-21T02:26:57.154Z,509.00
2023-02-21T02:27:57.432Z,509.00
2023-02-21T02:28:57.214Z,510.00
2023-02-21T02:29:57.180Z,511.00
2023-02-21T02:40:24.706Z,514.00
2023-02-21T02:41:25.267Z,515.00
2023-02-21T02:42:24.510Z,517.00
2023-02-21T02:43:24.528Z,520.00
2023-02-21T02:44:24.597Z,522.00
2023-02-21T02:45:24.570Z,522.00
2023-02-21T02:46:24.622Z,523.00
2023-02-21T02:47:24.612Z,522.00
2023-02-21T03:01:00.727Z,508.00
2023-02-21T03:01:59.220Z,509.00
2023-02-21T03:02:59.203Z,507.00
2023-02-21T03:03:59.146Z,509.00
2023-02-21T03:04:59.020Z,510.00
2023-02-21T03:05:59.028Z,512.00
2023-02-21T03:06:59.020Z,512.00
2023-02-21T03:29:52.094Z,519.00
2023-02-21T04:10:02.967Z,514.00
2023-02-21T04:10:59.133Z,514.00
2023-02-21T04:11:59.109Z,514.00
2023-02-21T04:12:59.147Z,514.00
2023-02-21T04:13:59.363Z,515.00
2023-02-21T04:14:59.749Z,515.00
2023-02-21T04:15:59.046Z,516.00
2023-02-21T04:16:59.000Z,515.00
2023-02-21T04:17:59.220Z,515.00
2023-02-21T04:18:58.989Z,516.00
2023-02-21T04:19:58.968Z,516.00
2023-02-21T04:20:58.967Z,518.00
2023-02-21T04:21:59.022Z,519.00
2023-02-21T04:23:03.582Z,517.00
2023-02-21T04:23:59.984Z,519.00
2023-02-21T04:24:58.960Z,522.00
2023-02-21T04:25:59.133Z,524.00
2023-02-21T04:26:58.953Z,526.00
2023-02-21T04:27:58.908Z,528.00
2023-02-21T04:28:58.945Z,528.00
2023-02-21T04:45:11.198Z,538.00
2023-02-21T05:27:36.640Z,529.00
2023-02-21T05:28:35.894Z,530.00
2023-02-21T05:33:41.774Z,537.00
2023-02-21T05:34:41.674Z,538.00
2023-02-21T05:35:41.119Z,537.00
2023-02-21T05:36:41.338Z,540.00
2023-02-21T05:37:41.676Z,544.00
2023-02-21T05:38:41.011Z,546.00
2023-02-21T05:39:41.045Z,544.00
2023-02-21T05:40:41.023Z,544.00
2023-02-21T05:41:40.986Z,543.00
2023-02-21T05:42:40.952Z,547.00
2023-02-21T05:43:40.960Z,549.00
2023-02-21T05:44:41.077Z,551.00
2023-02-21T05:45:41.317Z,551.00
2023-02-21T05:46:40.964Z,551.00
2023-02-21T05:47:40.996Z,554.00
2023-02-21T05:48:40.999Z,555.00
2023-02-21T05:49:40.988Z,556.00
2023-02-21T05:50:41.019Z,558.00
2023-02-21T05:53:00.776Z,556.00
2023-02-21T05:54:00.705Z,559.00
2023-02-21T05:55:00.657Z,564.00
2023-02-21T05:56:00.713Z,567.00
2023-02-21T05:57:00.726Z,569.00
2023-02-21T05:58:00.622Z,569.00
2023-02-21T05:59:00.619Z,568.00
2023-02-21T06:00:00.591Z,565.00
2023-02-21T06:02:39.553Z,556.00
2023-02-21T06:03:40.072Z,555.00
2023-02-21T06:04:39.395Z,558.00
2023-02-21T06:05:39.306Z,555.00
2023-02-21T06:06:39.365Z,556.00
2023-02-21T06:07:39.272Z,555.00
2023-02-21T06:08:39.289Z,554.00
2023-02-21T06:09:39.269Z,553.00
2023-02-21T06:10:39.234Z,552.00
2023-02-21T06:11:39.292Z,552.00
2023-02-21T06:12:39.222Z,553.00
2023-02-21T06:13:39.240Z,553.00
2023-02-21T06:14:39.394Z,550.00
2023-02-21T06:15:39.309Z,552.00
2023-02-21T06:16:39.315Z,552.00
2023-02-21T06:17:39.516Z,552.00
2023-02-21T06:18:39.221Z,552.00
2023-02-21T06:19:39.173Z,554.00
2023-02-21T06:20:39.231Z,555.00
2023-02-21T06:21:39.156Z,555.00
2023-02-21T06:22:39.149Z,554.00
2023-02-21T06:23:39.171Z,552.00
2023-02-21T06:24:39.186Z,552.00
2023-02-21T06:25:39.110Z,555.00
2023-02-21T06:26:39.115Z,558.00
2023-02-21T06:27:39.127Z,561.00
2023-02-21T06:28:39.134Z,564.00
2023-02-21T06:29:39.195Z,568.00
2023-02-21T06:30:39.164Z,567.00
2023-02-21T06:31:39.155Z,566.00
2023-02-21T06:32:39.129Z,566.00
2023-02-21T06:33:39.042Z,565.00
2023-02-21T06:34:39.068Z,562.00
2023-02-21T06:35:39.115Z,560.00
2023-02-21T06:36:39.139Z,562.00
2023-02-21T06:37:39.602Z,562.00
2023-02-21T06:38:39.167Z,564.00
2023-02-21T06:39:39.195Z,560.00
2023-02-21T06:40:39.182Z,557.00
2023-02-21T06:41:39.238Z,558.00
2023-02-21T06:42:39.714Z,555.00
2023-02-21T06:43:39.240Z,553.00
2023-02-21T06:44:39.240Z,552.00
2023-02-21T06:45:55.615Z,554.00
2023-02-21T06:46:39.363Z,553.00
2023-02-21T06:47:40.196Z,554.00
2023-02-21T06:48:39.215Z,555.00
2023-02-21T06:49:39.240Z,554.00
2023-02-21T06:50:39.191Z,553.00
2023-02-21T06:51:39.243Z,551.00
2023-02-21T06:52:39.295Z,552.00
2023-02-21T06:53:39.568Z,554.00
2023-02-21T06:54:39.214Z,551.00
2023-02-21T06:55:39.179Z,552.00
2023-02-21T06:56:39.212Z,554.00
2023-02-21T06:57:39.660Z,555.00
2023-02-21T06:58:39.156Z,555.00
2023-02-21T06:59:39.158Z,556.00
2023-02-21T07:00:39.214Z,556.00
2023-02-21T07:01:39.147Z,556.00
2023-02-21T07:02:39.118Z,557.00
2023-02-21T07:03:39.653Z,557.00
2023-02-21T07:04:39.204Z,554.00
2023-02-21T07:05:39.188Z,553.00
2023-02-21T07:06:39.102Z,552.00
2023-02-21T07:07:39.111Z,553.00
2023-02-21T07:08:39.182Z,553.00
2023-02-21T07:09:39.075Z,551.00
2023-02-21T07:10:39.074Z,548.00
2023-02-21T07:11:39.097Z,544.00
2023-02-21T07:12:39.135Z,541.00
2023-02-21T07:13:39.025Z,540.00
2023-02-21T07:14:39.051Z,539.00
2023-02-21T07:15:39.149Z,539.00
2023-02-21T07:16:39.008Z,538.00
2023-02-21T07:17:39.032Z,537.00
2023-02-21T07:18:39.030Z,536.00
2023-02-21T07:19:39.135Z,531.00
2023-02-21T07:20:39.046Z,525.00
2023-02-21T07:21:38.993Z,526.00
2023-02-21T07:22:39.009Z,525.00
2023-02-21T07:23:39.161Z,529.00
2023-02-21T07:25:39.098Z,537.00
2023-02-21T07:26:39.234Z,543.00
2023-02-21T07:27:39.140Z,543.00
2023-02-21T07:28:39.121Z,545.00
2023-02-21T07:29:39.160Z,542.00
2023-02-21T07:30:39.190Z,541.00
2023-02-21T07:31:39.275Z,540.00
2023-02-21T07:32:39.228Z,541.00
2023-02-21T07:33:39.687Z,541.00
2023-02-21T07:34:39.331Z,541.00
2023-02-21T07:35:39.370Z,540.00
2023-02-21T07:36:40.299Z,535.00
2023-02-21T07:37:39.381Z,532.00
2023-02-21T07:38:39.618Z,530.00
2023-02-21T07:39:39.416Z,529.00
2023-02-21T07:40:39.438Z,524.00
2023-02-21T07:41:39.528Z,523.00
2023-02-21T07:42:39.595Z,524.00
2023-02-21T07:43:39.593Z,526.00
2023-02-21T07:44:39.562Z,526.00
2023-02-21T07:45:39.618Z,528.00
2023-02-21T07:46:39.658Z,525.00
2023-02-21T07:47:40.941Z,523.00
2023-02-21T07:48:47.542Z,523.00
2023-02-21T07:49:39.842Z,530.00
2023-02-21T07:50:39.689Z,530.00
2023-02-21T07:51:39.863Z,528.00
2023-02-21T07:52:39.676Z,533.00
2023-02-21T07:53:39.629Z,531.00
2023-02-21T07:54:39.625Z,530.00
2023-02-21T07:55:39.621Z,527.00
2023-02-21T07:56:39.620Z,524.00
2023-02-21T07:57:39.603Z,521.00
2023-02-21T07:58:39.676Z,522.00
2023-02-21T07:59:39.561Z,520.00
2023-02-21T08:00:40.589Z,519.00
2023-02-21T08:01:39.605Z,520.00
2023-02-21T08:02:39.663Z,519.00
2023-02-21T08:03:39.740Z,518.00
2023-02-21T08:04:39.856Z,520.00
2023-02-21T08:05:39.671Z,521.00
2023-02-21T08:06:39.682Z,521.00
2023-02-21T08:07:39.792Z,522.00
2023-02-21T08:08:39.804Z,521.00
2023-02-21T08:09:40.662Z,521.00
2023-02-21T08:10:40.000Z,519.00
2023-02-21T08:11:39.800Z,518.00
2023-02-21T08:12:39.843Z,518.00
2023-02-21T08:13:39.971Z,515.00
2023-02-21T08:14:39.930Z,513.00
2023-02-21T08:15:39.957Z,508.00
2023-02-21T08:16:40.123Z,505.00
2023-02-21T08:17:40.709Z,505.00
2023-02-21T08:18:40.183Z,506.00
2023-02-21T08:19:40.195Z,506.00
2023-02-21T08:20:40.193Z,504.00
2023-02-21T08:21:40.234Z,498.00
2023-02-21T08:29:07.147Z,482.00
2023-02-21T08:31:26.407Z,503.00
2023-02-21T08:33:26.378Z,499.00
2023-02-21T08:41:15.225Z,487.00
2023-02-21T09:39:00.337Z,494.00
2023-02-21T09:41:17.984Z,496.00
2023-02-21T09:46:16.409Z,489.00
2023-02-21T09:47:17.247Z,486.00
2023-02-21T09:48:14.984Z,486.00
2023-02-21T09:49:15.050Z,486.00
2023-02-21T10:40:55.251Z,480.00
2023-02-21T10:45:55.314Z,470.00
2023-02-21T11:00:14.756Z,479.00
2023-02-21T11:01:15.587Z,476.00
2023-02-21T11:02:14.487Z,478.00
2023-02-21T11:03:14.230Z,479.00
2023-02-21T11:04:13.901Z,480.00
2023-02-21T11:05:15.129Z,479.00
2023-02-21T11:06:14.157Z,477.00
2023-02-21T11:07:14.066Z,479.00
2023-02-21T11:08:14.102Z,482.00
2023-02-21T11:09:14.385Z,485.00
2023-02-21T11:10:14.207Z,483.00
2023-02-21T11:11:14.525Z,485.00
2023-02-21T11:13:13.682Z,483.00
2023-02-21T11:14:13.583Z,481.00
2023-02-21T11:15:13.628Z,481.00
2023-02-21T11:16:13.605Z,480.00
2023-02-21T11:17:14.350Z,479.00
2023-02-21T11:18:13.591Z,477.00
2023-02-21T11:19:13.500Z,478.00
2023-02-21T11:20:13.563Z,473.00
2023-02-21T11:21:14.333Z,471.00
2023-02-21T11:22:13.852Z,470.00
2023-02-21T11:23:13.504Z,472.00
2023-02-21T11:24:13.624Z,474.00
2023-02-21T11:25:13.544Z,473.00
2023-02-21T11:26:13.549Z,473.00
2023-02-21T11:27:13.514Z,475.00
2023-02-21T11:28:13.479Z,475.00
2023-02-21T11:29:13.486Z,476.00
2023-02-21T11:30:13.553Z,475.00
2023-02-21T11:31:14.019Z,475.00
2023-02-21T11:32:13.648Z,476.00
2023-02-21T11:33:13.521Z,475.00
2023-02-21T11:34:13.499Z,473.00
2023-02-21T11:35:13.439Z,473.00
2023-02-21T11:36:13.921Z,474.00
2023-02-21T11:37:23.134Z,475.00
2023-02-21T11:44:06.611Z,477.00
2023-02-21T11:45:08.076Z,476.00
2023-02-21T11:46:06.479Z,479.00
2023-02-21T11:48:26.959Z,474.00
2023-02-21T11:49:25.709Z,476.00
2023-02-21T11:51:46.240Z,469.00
2023-02-21T12:10:12.543Z,483.00
2023-02-21T12:11:14.116Z,478.00
2023-02-21T12:12:27.959Z,474.00
2023-02-21T12:16:52.265Z,476.00
2023-02-21T12:19:10.591Z,464.00
2023-02-21T12:20:10.380Z,474.00
2023-02-21T12:21:11.327Z,480.00
2023-02-21T12:22:10.330Z,481.00
2023-02-21T12:23:10.240Z,481.00
2023-02-21T12:24:10.297Z,478.00
2023-02-21T12:25:09.931Z,476.00
2023-02-21T12:26:10.123Z,475.00
2023-02-21T12:27:09.863Z,475.00
2023-02-21T12:28:12.897Z,476.00
2023-02-21T12:29:10.323Z,477.00
2023-02-21T12:30:12.824Z,479.00
2023-02-21T12:31:10.229Z,481.00
2023-02-21T12:32:10.411Z,482.00
2023-02-21T12:33:10.258Z,484.00
2023-02-21T12:34:11.966Z,484.00
2023-02-21T12:35:10.207Z,482.00
2023-02-21T12:36:11.153Z,481.00
2023-02-21T12:37:11.445Z,479.00
2023-02-21T12:38:10.133Z,477.00
2023-02-21T12:39:10.180Z,475.00
2023-02-21T12:43:49.471Z,477.00
2023-02-21T12:52:24.101Z,459.00
2023-02-21T12:53:24.062Z,461.00
2023-02-21T12:55:43.329Z,454.00
2023-02-21T12:56:43.684Z,457.00
2023-02-21T12:57:43.785Z,457.00
2023-02-21T12:58:43.310Z,456.00
2023-02-21T12:59:43.093Z,459.00
2023-02-21T13:00:42.976Z,459.00
2023-02-21T13:01:42.994Z,461.00
2023-02-21T13:02:43.096Z,463.00
2023-02-21T13:03:42.983Z,463.00
2023-02-21T13:28:46.405Z,457.00
2023-02-21T13:31:05.601Z,460.00
2023-02-21T14:36:26.520Z,465.00
2023-02-21T15:49:23.646Z,451.00
2023-02-21T16:12:32.260Z,467.00
2023-02-21T16:13:31.867Z,465.00
2023-02-21T16:14:31.871Z,469.00
2023-02-21T16:15:31.901Z,470.00
2023-02-21T16:16:31.828Z,468.00
2023-02-21T16:17:31.886Z,468.00
2023-02-21T16:18:32.159Z,467.00
2023-02-21T16:19:31.809Z,465.00
2023-02-21T16:20:32.739Z,464.00
2023-02-21T16:26:12.046Z,466.00
2023-02-21T16:28:31.452Z,461.00
2023-02-21T16:29:30.884Z,461.00
2023-02-21T16:30:30.846Z,464.00
2023-02-21T16:31:30.843Z,464.00
2023-02-21T16:32:30.812Z,465.00
2023-02-21T16:33:30.783Z,466.00
2023-02-21T16:34:30.754Z,463.00
2023-02-21T16:35:30.774Z,462.00
2023-02-21T16:36:30.794Z,460.00
2023-02-21T16:37:30.765Z,460.00
2023-02-21T16:38:30.784Z,462.00
2023-02-21T16:39:30.726Z,461.00
2023-02-21T16:40:30.725Z,462.00
2023-02-21T16:41:30.735Z,464.00
2023-02-21T16:42:30.797Z,466.00
2023-02-21T16:43:30.747Z,470.00
2023-02-21T16:44:30.650Z,468.00
2023-02-21T16:45:30.709Z,468.00
2023-02-21T16:46:30.785Z,469.00
2023-02-21T16:47:30.768Z,469.00
2023-02-21T16:48:31.156Z,469.00
2023-02-21T16:49:30.692Z,469.00
2023-02-21T16:50:30.679Z,470.00
2023-02-21T16:51:30.602Z,469.00
2023-02-21T16:52:30.632Z,468.00
2023-02-21T16:53:30.641Z,471.00
2023-02-21T16:54:30.611Z,472.00
2023-02-21T16:55:30.955Z,473.00
2023-02-21T16:56:30.688Z,470.00
2023-02-21T16:57:30.599Z,469.00
2023-02-21T16:58:30.658Z,471.00
2023-02-21T16:59:30.674Z,470.00
2023-02-21T17:00:30.718Z,469.00
2023-02-21T17:01:31.055Z,469.00
2023-02-21T17:02:30.647Z,469.00
2023-02-21T17:03:30.578Z,469.00
2023-02-21T17:04:30.580Z,471.00
2023-02-21T17:05:30.557Z,470.00
2023-02-21T17:06:30.551Z,471.00
2023-02-21T17:07:30.564Z,471.00
2023-02-21T17:08:30.569Z,473.00
2023-02-21T17:09:30.496Z,473.00
2023-02-21T17:10:30.533Z,475.00
2023-02-21T17:11:30.515Z,476.00
2023-02-21T17:12:30.511Z,477.00
2023-02-21T17:13:30.497Z,478.00
2023-02-21T17:14:30.488Z,479.00
2023-02-21T17:15:30.562Z,477.00
2023-02-21T17:16:30.475Z,475.00
2023-02-21T17:17:30.512Z,476.00
2023-02-21T17:18:30.585Z,475.00
2023-02-21T17:19:30.610Z,476.00
2023-02-21T17:20:30.639Z,477.00
2023-02-21T17:21:30.741Z,476.00
2023-02-21T17:22:30.814Z,475.00
2023-02-21T17:23:30.814Z,472.00
2023-02-21T17:24:30.869Z,471.00
2023-02-21T17:25:30.962Z,472.00
2023-02-21T17:26:31.040Z,476.00
2023-02-21T17:27:31.087Z,481.00
2023-02-21T17:28:31.112Z,483.00
2023-02-21T17:29:31.176Z,487.00
2023-02-21T17:30:31.254Z,487.00
2023-02-21T17:32:51.479Z,481.00
2023-02-21T17:33:51.147Z,479.00
2023-02-21T17:34:51.177Z,474.00
2023-02-21T17:35:51.109Z,476.00
2023-02-21T17:36:51.057Z,475.00
2023-02-21T17:37:51.124Z,475.00
2023-02-21T17:38:51.110Z,476.00
2023-02-21T17:39:51.063Z,476.00
2023-02-21T17:40:51.076Z,477.00
2023-02-21T17:41:51.022Z,480.00
2023-02-21T17:42:51.086Z,480.00
2023-02-21T17:43:51.053Z,481.00
2023-02-21T17:44:51.018Z,482.00
2023-02-21T17:45:51.929Z,485.00
2023-02-21T17:46:51.285Z,485.00
2023-02-21T17:51:54.476Z,477.00
2023-02-21T17:52:54.156Z,475.00
2023-02-21T17:53:53.977Z,474.00
2023-02-21T17:54:53.476Z,473.00
2023-02-21T17:55:53.552Z,471.00
2023-02-21T17:56:53.446Z,471.00
2023-02-21T17:57:53.448Z,470.00
2023-02-21T17:58:53.508Z,468.00
2023-02-21T17:59:53.423Z,464.00
2023-02-21T18:00:53.516Z,461.00
2023-02-21T18:01:53.444Z,460.00
2023-02-21T18:02:53.383Z,460.00
2023-02-21T18:03:53.436Z,459.00
2023-02-21T18:04:53.431Z,457.00
2023-02-21T18:05:53.458Z,457.00
2023-02-21T18:06:53.445Z,457.00
2023-02-21T18:07:53.405Z,460.00
2023-02-21T18:08:53.453Z,460.00
2023-02-21T18:09:53.508Z,459.00
2023-02-21T18:10:53.525Z,462.00
2023-02-21T18:11:53.636Z,462.00
2023-02-21T18:12:53.620Z,463.00
2023-02-21T18:13:53.647Z,466.00
2023-02-21T18:14:53.712Z,468.00
2023-02-21T18:15:53.733Z,476.00
2023-02-21T18:16:53.769Z,483.00
2023-02-21T18:17:53.791Z,483.00
2023-02-21T18:18:53.787Z,486.00
2023-02-21T18:19:53.803Z,488.00
2023-02-21T18:20:53.763Z,489.00
2023-02-21T18:21:54.446Z,489.00
2023-02-21T18:22:53.907Z,491.00
2023-02-21T18:23:53.901Z,493.00
2023-02-21T18:24:53.873Z,493.00
2023-02-21T18:25:53.950Z,493.00
2023-02-21T18:26:53.949Z,493.00
2023-02-21T18:27:54.014Z,496.00
2023-02-21T18:28:54.073Z,494.00
2023-02-21T18:29:54.064Z,494.00
2023-02-21T18:30:54.063Z,495.00
2023-02-21T18:31:54.126Z,496.00
2023-02-21T18:32:54.154Z,495.00
2023-02-21T18:33:54.314Z,495.00
2023-02-21T18:34:54.268Z,497.00
2023-02-21T18:35:54.371Z,500.00
2023-02-21T18:36:54.409Z,503.00
2023-02-21T18:37:54.410Z,508.00
2023-02-21T18:38:54.489Z,510.00
2023-02-21T18:39:54.478Z,510.00
2023-02-21T18:40:54.627Z,511.00
2023-02-21T18:41:54.622Z,510.00
2023-02-21T18:42:54.692Z,514.00
2023-02-21T18:43:54.757Z,516.00
2023-02-21T18:44:54.794Z,516.00
2023-02-21T18:45:54.782Z,514.00
2023-02-21T18:46:54.832Z,513.00
2023-02-21T18:47:54.795Z,510.00
2023-02-21T18:48:54.895Z,512.00
2023-02-21T18:49:56.404Z,512.00
2023-02-21T18:50:54.869Z,510.00
2023-02-21T18:51:54.842Z,510.00
2023-02-21T18:52:54.907Z,509.00
2023-02-21T18:53:54.905Z,507.00
2023-02-21T18:54:54.897Z,504.00
2023-02-21T18:55:54.853Z,503.00
2023-02-21T18:56:55.025Z,499.00
2023-02-21T18:57:54.927Z,500.00
2023-02-21T18:58:54.976Z,501.00
2023-02-21T18:59:54.949Z,503.00
2023-02-21T19:00:55.169Z,506.00
2023-02-21T19:01:54.961Z,509.00
2023-02-21T19:02:55.064Z,509.00
2023-02-21T19:03:55.134Z,509.00
2023-02-21T19:04:55.095Z,509.00
2023-02-21T19:05:55.515Z,509.00
2023-02-21T19:06:55.103Z,509.00
2023-02-21T19:07:55.160Z,509.00
2023-02-21T19:08:55.238Z,507.00
2023-02-21T19:09:55.195Z,507.00
2023-02-21T19:10:55.451Z,511.00
2023-02-21T19:11:55.543Z,515.00
2023-02-21T19:12:55.402Z,516.00
2023-02-21T19:13:55.440Z,514.00
2023-02-21T19:14:55.472Z,513.00
2023-02-21T19:15:55.642Z,512.00
2023-02-21T19:16:55.641Z,511.00
2023-02-21T19:18:55.623Z,514.00
2023-02-21T19:19:56.171Z,516.00
2023-02-21T19:20:55.552Z,518.00
2023-02-21T19:21:55.484Z,518.00
2023-02-21T19:22:55.567Z,518.00
2023-02-21T19:23:55.511Z,517.00
2023-02-21T19:26:24.030Z,505.00
2023-02-21T19:27:24.367Z,506.00
2023-02-21T19:28:23.940Z,507.00
2023-02-21T19:59:22.307Z,507.00
2023-02-21T20:00:22.304Z,506.00
2023-02-21T20:01:22.050Z,505.00
2023-02-21T20:02:22.167Z,509.00
2023-02-21T20:03:22.159Z,512.00
2023-02-21T20:04:22.242Z,514.00
2023-02-21T20:05:22.043Z,516.00
2023-02-21T20:06:21.917Z,519.00
2023-02-21T20:07:21.965Z,520.00
2023-02-21T20:08:21.983Z,521.00
2023-02-21T20:09:22.000Z,521.00
2023-02-21T20:10:21.907Z,521.00
2023-02-21T20:11:21.909Z,523.00
2023-02-21T20:12:21.918Z,521.00
2023-02-21T20:13:21.925Z,524.00
2023-02-21T20:14:22.178Z,523.00
2023-02-21T20:15:21.848Z,525.00
2023-02-21T20:16:21.901Z,529.00
2023-02-21T20:17:22.042Z,527.00
2023-02-21T20:18:21.808Z,529.00
2023-02-21T20:19:21.868Z,532.00
2023-02-21T20:20:21.962Z,532.00
2023-02-21T20:21:21.862Z,533.00
2023-02-21T20:22:21.980Z,530.00
2023-02-21T20:23:21.816Z,528.00
2023-02-21T20:24:21.846Z,528.00
2023-02-21T20:25:21.893Z,526.00
2023-02-21T20:26:21.894Z,524.00
2023-02-21T20:27:21.875Z,525.00
2023-02-21T20:28:21.761Z,527.00
2023-02-21T20:29:21.777Z,529.00
2023-02-21T20:30:23.926Z,530.00
2023-02-21T20:31:21.797Z,532.00
2023-02-21T20:32:21.732Z,531.00
2023-02-21T20:33:21.701Z,530.00
2023-02-21T20:34:21.784Z,529.00
2023-02-21T20:35:21.703Z,528.00
2023-02-21T20:36:21.664Z,527.00
2023-02-21T20:38:42.116Z,507.00
2023-02-21T20:39:41.822Z,513.00
2023-02-21T20:40:41.981Z,515.00
2023-02-21T20:41:41.719Z,513.00
2023-02-21T20:42:41.734Z,513.00
2023-02-21T20:43:42.002Z,512.00
2023-02-21T20:44:41.862Z,512.00
2023-02-21T20:45:41.731Z,515.00
2023-02-21T20:46:41.663Z,516.00
2023-02-21T20:47:41.825Z,516.00
2023-02-21T20:48:41.633Z,516.00
2023-02-21T20:49:41.663Z,513.00
2023-02-21T20:50:41.722Z,513.00
2023-02-21T20:51:41.621Z,512.00
2023-02-21T20:52:41.582Z,511.00
2023-02-21T20:53:41.610Z,510.00
2023-02-21T20:54:41.660Z,510.00
2023-02-21T20:55:41.580Z,509.00
2023-02-21T21:02:42.266Z,508.00
2023-02-21T21:03:41.752Z,509.00
2023-02-21T21:04:41.757Z,512.00
2023-02-21T21:05:41.653Z,511.00
2023-02-21T21:06:41.647Z,512.00
2023-02-21T21:07:41.647Z,510.00
2023-02-21T21:08:41.585Z,507.00
2023-02-21T21:09:41.882Z,506.00
2023-02-21T21:10:41.760Z,505.00
2023-02-21T21:11:41.916Z,504.00
2023-02-21T21:12:41.777Z,503.00
2023-02-21T21:13:41.589Z,502.00
2023-02-21T21:14:41.689Z,500.00
2023-02-21T21:15:41.562Z,498.00
2023-02-21T21:16:41.547Z,497.00
2023-02-21T21:17:41.569Z,497.00
2023-02-21T21:18:41.520Z,498.00
2023-02-21T21:21:07.562Z,494.00
2023-02-21T21:24:44.001Z,497.00
2023-02-21T21:25:44.182Z,496.00
2023-02-21T21:26:43.747Z,496.00
2023-02-21T21:27:43.793Z,499.00
2023-02-21T21:28:43.778Z,501.00
2023-02-21T21:29:43.962Z,504.00
2023-02-21T21:30:43.953Z,504.00
2023-02-21T21:31:43.730Z,506.00
2023-02-21T21:32:43.714Z,508.00
2023-02-21T21:33:43.748Z,509.00
2023-02-21T21:34:43.702Z,511.00
2023-02-21T21:35:43.681Z,511.00
2023-02-21T21:36:43.693Z,512.00
2023-02-21T21:37:43.708Z,511.00
2023-02-21T21:38:43.665Z,508.00
2023-02-21T21:39:43.647Z,508.00
2023-02-21T21:40:43.670Z,509.00
2023-02-21T21:41:43.618Z,508.00
2023-02-21T21:42:43.638Z,506.00
2023-02-21T21:43:43.631Z,506.00
2023-02-21T21:44:43.613Z,506.00
2023-02-21T21:45:43.595Z,504.00
2023-02-21T21:46:43.598Z,502.00
2023-02-21T21:47:43.606Z,500.00
2023-02-21T21:48:43.603Z,501.00
2023-02-21T21:49:43.618Z,500.00
2023-02-21T21:50:43.614Z,499.00
2023-02-21T21:51:43.591Z,497.00
2023-02-21T21:52:43.601Z,497.00
2023-02-21T21:53:43.558Z,497.00
2023-02-21T21:54:43.560Z,498.00
2023-02-21T21:55:43.555Z,498.00
2023-02-21T21:56:43.542Z,502.00
2023-02-21T21:57:43.535Z,503.00
2023-02-21T21:58:43.549Z,503.00
2023-02-21T21:59:43.593Z,505.00
2023-02-21T22:00:43.529Z,507.00
2023-02-21T22:01:43.555Z,510.00
2023-02-21T22:02:44.468Z,510.00
2023-02-21T22:03:43.480Z,508.00
2023-02-21T22:04:43.512Z,509.00
2023-02-21T22:05:43.448Z,510.00
2023-02-21T22:06:43.508Z,507.00
2023-02-21T22:07:43.519Z,504.00
2023-02-21T22:08:43.450Z,503.00
2023-02-21T22:09:43.477Z,502.00
2023-02-21T22:10:43.437Z,505.00
2023-02-21T22:11:43.447Z,504.00
2023-02-21T22:12:43.486Z,505.00
2023-02-21T22:13:43.453Z,506.00
2023-02-21T22:14:43.558Z,506.00
2023-02-21T22:15:43.598Z,509.00
2023-02-21T22:16:43.570Z,509.00
2023-02-21T22:17:43.621Z,510.00
2023-02-21T22:18:43.690Z,511.00
2023-02-21T22:19:43.728Z,509.00
2023-02-21T22:20:43.786Z,506.00
2023-02-21T22:21:43.812Z,503.00
2023-02-21T22:22:43.826Z,503.00
2023-02-21T22:23:43.865Z,505.00
2023-02-21T22:24:43.937Z,507.00
2023-02-21T22:25:43.944Z,509.00
2023-02-21T22:26:44.008Z,509.00
2023-02-21T22:27:44.052Z,510.00
2023-02-21T22:28:44.073Z,511.00
2023-02-21T22:29:44.109Z,509.00
2023-02-21T22:30:44.207Z,508.00
2023-02-21T22:31:44.190Z,508.00
2023-02-21T22:32:44.320Z,507.00
2023-02-21T22:33:44.308Z,507.00
2023-02-21T22:34:44.352Z,507.00
2023-02-21T22:35:44.363Z,506.00
2023-02-21T22:36:44.431Z,505.00
2023-02-21T22:37:44.484Z,506.00
2023-02-21T22:38:44.542Z,507.00
2023-02-21T22:39:44.554Z,509.00
2023-02-21T22:40:44.561Z,508.00
2023-02-21T22:41:44.691Z,508.00
2023-02-21T22:42:44.673Z,508.00
2023-02-21T22:43:44.722Z,507.00
2023-02-21T22:44:44.773Z,509.00
2023-02-21T22:45:44.889Z,509.00
2023-02-21T22:46:44.996Z,509.00
2023-02-21T22:47:44.997Z,508.00
2023-02-21T22:50:05.100Z,497.00
2023-02-21T22:51:05.017Z,498.00
2023-02-21T22:52:05.105Z,500.00
2023-02-21T22:53:04.837Z,502.00
2023-02-21T22:54:04.750Z,499.00
2023-02-21T22:55:04.727Z,497.00
2023-02-21T22:56:04.784Z,498.00
2023-02-21T22:57:04.764Z,497.00
2023-02-21T22:58:04.689Z,501.00
2023-02-21T22:59:04.733Z,503.00